Time;durP1;ratioP1;P1;durP2;ratioP2;P2;SDS_P1;SDS_P2;PMS_P1;PMS_P2;Temp;Humidity;BMP_temperature;BMP_pressure;BME280_temperature;BME280_humidity;BME280_pressure;Samples;Min_cycle;Max_cycle;Signal;HPM_P1;HPM_P2
2022/01/09 00:01:33;;;;;;;7.57;2.77;;;0.50;99.90;;;;;;5035323;28;20021;-75
2022/01/09 00:03:59;;;;;;;4.73;2.53;;;0.50;99.90;;;;;;5035452;28;20348;-76
2022/01/09 00:06:24;;;;;;;4.00;1.97;;;0.50;99.90;;;;;;5034367;28;20032;-75
2022/01/09 00:08:50;;;;;;;4.27;2.00;;;0.50;99.90;;;;;;5035037;28;20026;-75
2022/01/09 00:11:17;;;;;;;4.30;2.17;;;0.50;99.90;;;;;;5035245;28;20102;-75
2022/01/09 00:13:43;;;;;;;6.37;3.00;;;0.60;99.90;;;;;;5035343;28;20105;-76
2022/01/09 00:16:08;;;;;;;6.63;3.20;;;0.60;99.90;;;;;;5034925;28;20097;-75
2022/01/09 00:18:34;;;;;;;3.73;2.10;;;0.70;99.90;;;;;;5034836;28;20033;-75
2022/01/09 00:21:05;;;;;;;5.20;3.03;;;0.70;99.90;;;;;;5035089;28;20021;-75
2022/01/09 00:23:32;;;;;;;4.83;2.63;;;0.70;99.90;;;;;;5035104;28;20041;-75
2022/01/09 00:26:00;;;;;;;3.43;1.80;;;0.70;99.90;;;;;;5033823;28;20083;-75
2022/01/09 00:28:26;;;;;;;4.90;2.77;;;0.70;99.90;;;;;;5035411;28;20029;-75
2022/01/09 00:30:52;;;;;;;3.87;1.77;;;0.60;99.90;;;;;;5034898;28;20030;-76
2022/01/09 00:33:21;;;;;;;2.87;1.77;;;0.80;99.90;;;;;;5035017;28;20029;-75
2022/01/09 00:35:47;;;;;;;4.17;2.20;;;0.80;99.90;;;;;;5035080;28;20022;-76
2022/01/09 00:38:12;;;;;;;3.27;2.00;;;0.80;99.90;;;;;;5035022;28;20021;-75
2022/01/09 00:40:38;;;;;;;3.27;1.80;;;0.80;99.90;;;;;;5034525;28;20048;-75
2022/01/09 00:43:08;;;;;;;3.20;1.60;;;0.80;99.90;;;;;;5034481;28;20060;-76
2022/01/09 00:45:34;;;;;;;2.30;1.53;;;0.80;99.90;;;;;;5034607;28;20025;-76
2022/01/09 00:47:59;;;;;;;2.93;1.60;;;0.90;99.90;;;;;;5033274;28;20029;-76
2022/01/09 00:50:25;;;;;;;4.17;1.60;;;0.80;99.90;;;;;;5034478;28;20454;-75
2022/01/09 00:52:51;;;;;;;3.73;1.57;;;0.90;99.90;;;;;;5034571;28;20109;-75
2022/01/09 00:55:18;;;;;;;2.20;1.40;;;0.90;99.90;;;;;;5034223;28;20490;-75
2022/01/09 00:57:44;;;;;;;3.03;1.70;;;0.90;99.90;;;;;;5034568;28;20022;-76
2022/01/09 01:00:10;;;;;;;2.57;1.40;;;0.90;99.90;;;;;;5034309;28;20084;-76
2022/01/09 01:02:36;;;;;;;1.93;1.30;;;1.00;99.90;;;;;;5032847;28;20120;-76
2022/01/09 01:05:03;;;;;;;3.03;1.43;;;1.10;99.90;;;;;;5032931;28;20109;-76
2022/01/09 01:07:29;;;;;;;2.67;1.50;;;1.10;99.90;;;;;;5034065;28;20021;-76
2022/01/09 01:09:57;;;;;;;2.33;1.43;;;1.10;99.90;;;;;;5034098;28;20124;-76
2022/01/09 01:12:26;;;;;;;4.07;2.10;;;1.00;99.90;;;;;;5034161;28;20075;-73
2022/01/09 01:14:52;;;;;;;5.37;3.23;;;1.00;99.90;;;;;;5034283;28;20048;-72
2022/01/09 01:17:18;;;;;;;7.80;3.60;;;1.00;99.90;;;;;;5034126;28;20354;-73
2022/01/09 01:19:44;;;;;;;5.23;3.17;;;1.00;99.90;;;;;;5033926;28;20067;-73
2022/01/09 01:22:09;;;;;;;2.97;1.60;;;1.00;99.90;;;;;;5033935;28;20173;-73
2022/01/09 01:24:37;;;;;;;3.10;1.70;;;1.00;99.90;;;;;;5033848;28;20053;-73
2022/01/09 01:27:03;;;;;;;2.27;1.33;;;1.20;99.90;;;;;;5032515;28;20022;-73
2022/01/09 01:29:29;;;;;;;3.70;1.50;;;1.30;99.90;;;;;;5033715;28;20136;-73
2022/01/09 01:31:55;;;;;;;2.60;1.40;;;1.20;99.90;;;;;;5033763;28;20437;-73
2022/01/09 01:34:21;;;;;;;1.57;1.10;;;1.20;99.90;;;;;;5033701;28;20037;-73
2022/01/09 01:36:46;;;;;;;2.00;1.47;;;1.10;99.90;;;;;;5033796;28;20441;-73
2022/01/09 01:39:12;;;;;;;1.90;1.37;;;1.10;99.90;;;;;;5033595;28;20407;-73
2022/01/09 01:41:38;;;;;;;3.07;1.60;;;1.10;99.90;;;;;;5033683;28;20458;-73
2022/01/09 01:44:09;;;;;;;3.37;1.13;;;1.10;99.90;;;;;;5033359;28;20033;-73
2022/01/09 01:46:35;;;;;;;1.77;1.20;;;1.10;99.90;;;;;;5033855;28;20032;-71
2022/01/09 01:49:00;;;;;;;3.00;1.40;;;1.00;99.90;;;;;;5033445;28;20032;-72
2022/01/09 01:51:26;;;;;;;3.17;1.40;;;1.00;99.90;;;;;;5033810;28;20025;-72
2022/01/09 01:53:55;;;;;;;1.50;1.27;;;0.90;99.90;;;;;;5032427;28;20053;-72
2022/01/09 01:56:21;;;;;;;3.17;1.43;;;0.90;99.90;;;;;;5033194;28;20098;-72
2022/01/09 01:58:48;;;;;;;1.53;1.40;;;0.90;99.90;;;;;;5033357;28;20026;-72
2022/01/09 02:01:14;;;;;;;2.50;1.50;;;0.90;99.90;;;;;;5033272;28;20451;-72
2022/01/09 02:03:40;;;;;;;2.10;1.47;;;0.80;99.90;;;;;;5033403;28;20040;-72
2022/01/09 02:06:06;;;;;;;1.60;1.10;;;0.80;99.90;;;;;;5033584;28;20038;-72
2022/01/09 02:08:32;;;;;;;1.97;1.27;;;0.80;99.90;;;;;;5031979;28;20458;-73
2022/01/09 02:10:58;;;;;;;1.70;1.10;;;0.80;99.90;;;;;;5031882;28;20477;-73
2022/01/09 02:13:24;;;;;;;1.93;1.30;;;0.80;99.90;;;;;;5033569;28;20034;-72
2022/01/09 02:15:49;;;;;;;1.83;1.30;;;0.80;99.90;;;;;;5033139;28;20036;-72
2022/01/09 02:18:21;;;;;;;2.47;1.20;;;0.80;99.90;;;;;;5033447;28;20031;-72
2022/01/09 02:20:48;;;;;;;1.40;1.10;;;0.80;99.90;;;;;;5033462;28;20021;-71
2022/01/09 02:23:16;;;;;;;2.00;1.30;;;0.80;99.90;;;;;;5033045;28;20124;-71
2022/01/09 02:25:42;;;;;;;2.00;1.40;;;0.80;99.90;;;;;;5032923;28;20076;-71
2022/01/09 02:28:10;;;;;;;2.13;1.20;;;0.80;99.90;;;;;;5033080;28;20433;-71
2022/01/09 02:30:36;;;;;;;1.97;1.10;;;0.80;99.90;;;;;;5037088;28;20084;-72
2022/01/09 02:33:04;;;;;;;1.70;1.30;;;0.80;99.90;;;;;;5037404;28;20029;-72
2022/01/09 02:35:30;;;;;;;1.90;1.20;;;0.90;99.90;;;;;;5037225;28;20108;-72
2022/01/09 02:37:56;;;;;;;2.13;1.30;;;0.90;99.90;;;;;;5036843;28;20120;-73
2022/01/09 02:40:23;;;;;;;1.87;1.20;;;0.90;99.90;;;;;;5037114;28;20029;-72
2022/01/09 02:42:51;;;;;;;1.40;1.10;;;0.90;99.90;;;;;;5036958;28;20022;-72
2022/01/09 02:45:20;;;;;;;1.33;0.90;;;0.90;99.90;;;;;;5036794;28;20021;-72
2022/01/09 02:47:47;;;;;;;1.23;0.97;;;1.00;99.90;;;;;;5036720;28;20022;-72
2022/01/09 02:52:54;;;;;;;3.22;1.30;;;1.00;99.90;;;;;;5036631;28;20376;-72
2022/01/09 02:55:21;;;;;;;2.30;1.20;;;1.00;99.90;;;;;;5046277;28;20508;-70
2022/01/09 02:57:53;;;;;;;0.80;0.80;;;1.00;99.90;;;;;;5056483;28;20056;-71
2022/01/09 03:00:23;;;;;;;1.83;1.00;;;1.10;99.90;;;;;;5056409;28;20533;-71
2022/01/09 03:02:49;;;;;;;1.30;1.00;;;1.10;99.90;;;;;;5056689;28;20437;-72
2022/01/09 03:05:15;;;;;;;1.00;0.90;;;1.00;99.90;;;;;;5056743;28;20067;-72
2022/01/09 03:07:42;;;;;;;1.30;1.00;;;1.00;99.90;;;;;;5056737;28;20136;-72
2022/01/09 03:10:09;;;;;;;0.97;0.90;;;1.00;99.90;;;;;;5056609;28;20029;-71
2022/01/09 03:12:34;;;;;;;1.40;0.93;;;1.00;99.90;;;;;;5056234;28;20346;-72
2022/01/09 03:15:00;;;;;;;1.33;0.87;;;1.10;99.90;;;;;;5055058;28;20033;-72
2022/01/09 03:17:26;;;;;;;1.27;1.00;;;1.10;99.90;;;;;;5036113;28;20048;-72
2022/01/09 03:19:52;;;;;;;1.67;1.00;;;1.10;99.90;;;;;;5036141;28;20018;-72
2022/01/09 03:22:18;;;;;;;1.50;0.77;;;1.10;99.90;;;;;;5036379;28;20109;-72
2022/01/09 03:24:44;;;;;;;1.63;0.90;;;1.10;99.90;;;;;;5035954;28;20534;-72
2022/01/09 03:27:10;;;;;;;0.93;0.90;;;1.10;99.90;;;;;;5036292;28;20109;-72
2022/01/09 03:29:36;;;;;;;1.10;1.00;;;1.10;99.90;;;;;;5036068;28;20044;-72
2022/01/09 03:32:01;;;;;;;1.03;0.90;;;1.10;99.90;;;;;;5036422;28;20445;-72
2022/01/09 03:34:27;;;;;;;1.10;0.90;;;1.10;99.90;;;;;;5035769;28;20419;-72
2022/01/09 03:36:53;;;;;;;1.70;1.23;;;1.10;99.90;;;;;;5036160;28;20029;-72
2022/01/09 03:39:19;;;;;;;1.17;0.90;;;1.10;99.90;;;;;;5035859;28;20038;-72
2022/01/09 03:41:45;;;;;;;2.70;0.80;;;1.10;99.90;;;;;;5034541;28;20438;-72
2022/01/09 03:44:10;;;;;;;1.10;0.80;;;1.00;99.90;;;;;;5035724;28;20100;-73
2022/01/09 03:46:36;;;;;;;2.07;0.87;;;1.00;99.90;;;;;;5035897;28;20025;-72
2022/01/09 03:49:01;;;;;;;1.03;0.80;;;1.00;99.90;;;;;;5036179;28;20041;-73
2022/01/09 03:51:32;;;;;;;2.40;1.00;;;1.00;99.90;;;;;;5036226;28;20053;-72
2022/01/09 03:53:58;;;;;;;1.17;0.90;;;1.00;99.90;;;;;;5034248;28;20378;-73
2022/01/09 03:56:25;;;;;;;1.00;0.80;;;1.00;99.90;;;;;;5035735;28;20324;-73
2022/01/09 03:58:51;;;;;;;1.50;1.00;;;1.00;99.90;;;;;;5035595;28;20536;-72
2022/01/09 04:01:16;;;;;;;4.23;1.07;;;1.00;99.90;;;;;;5035515;28;20108;-73
2022/01/09 04:03:42;;;;;;;1.80;1.00;;;1.00;99.90;;;;;;5035279;28;20370;-73
2022/01/09 04:06:08;;;;;;;2.57;1.10;;;1.00;99.90;;;;;;5034609;28;20057;-71
2022/01/09 04:08:34;;;;;;;2.57;1.10;;;1.00;99.90;;;;;;5035718;28;20034;-72
2022/01/09 04:11:04;;;;;;;0.90;0.80;;;1.00;99.90;;;;;;5035200;28;20053;-71
2022/01/09 04:13:31;;;;;;;0.97;0.80;;;1.00;99.90;;;;;;5035876;28;20099;-72
2022/01/09 04:15:57;;;;;;;2.70;1.10;;;1.10;99.90;;;;;;5035088;28;20053;-72
2022/01/09 04:18:23;;;;;;;1.07;1.00;;;1.10;99.90;;;;;;5035358;28;20026;-72
2022/01/09 04:20:50;;;;;;;1.33;0.87;;;1.30;99.90;;;;;;5035606;28;20052;-72
2022/01/09 04:23:17;;;;;;;1.87;0.80;;;1.60;99.90;;;;;;5034641;28;20054;-72
2022/01/09 04:25:44;;;;;;;2.07;0.90;;;1.80;99.90;;;;;;5034948;28;20032;-71
2022/01/09 04:28:10;;;;;;;1.03;0.80;;;2.00;99.90;;;;;;5034876;28;20022;-72
2022/01/09 04:30:36;;;;;;;1.67;0.80;;;2.10;99.90;;;;;;5033412;28;20078;-72
2022/01/09 04:33:03;;;;;;;0.97;0.80;;;2.20;99.90;;;;;;5034697;28;20026;-72
2022/01/09 04:35:28;;;;;;;2.27;1.17;;;2.10;99.90;;;;;;5034982;28;20021;-73
2022/01/09 04:37:55;;;;;;;1.30;0.90;;;2.10;99.90;;;;;;5034507;28;20470;-73
2022/01/09 04:40:21;;;;;;;1.77;0.90;;;2.20;99.90;;;;;;5034999;28;20029;-73
2022/01/09 04:42:52;;;;;;;1.63;0.90;;;2.20;99.90;;;;;;5034588;28;20490;-73
2022/01/09 04:45:20;;;;;;;1.70;0.90;;;2.30;99.90;;;;;;5034877;28;20025;-72
2022/01/09 04:47:48;;;;;;;2.03;1.00;;;2.30;99.90;;;;;;5034551;28;20030;-72
2022/01/09 04:50:17;;;;;;;1.43;0.80;;;2.40;99.90;;;;;;5034775;28;20029;-72
2022/01/09 04:52:43;;;;;;;1.03;0.90;;;2.50;99.90;;;;;;5033880;28;20052;-72
2022/01/09 04:55:10;;;;;;;1.17;1.07;;;2.60;99.90;;;;;;5034367;28;20457;-72
2022/01/09 04:57:36;;;;;;;1.30;0.87;;;2.80;99.90;;;;;;5034338;28;20031;-72
2022/01/09 05:00:03;;;;;;;0.70;0.70;;;2.90;99.90;;;;;;5034360;28;20108;-72
2022/01/09 05:02:29;;;;;;;0.87;0.77;;;3.10;99.90;;;;;;5034206;28;20455;-73
2022/01/09 05:04:54;;;;;;;1.00;0.80;;;3.20;99.90;;;;;;5034217;28;20022;-72
2022/01/09 05:07:20;;;;;;;1.77;0.70;;;3.20;99.90;;;;;;5034217;28;20078;-72
2022/01/09 05:09:45;;;;;;;0.80;0.60;;;3.40;99.90;;;;;;5034178;28;20425;-72
2022/01/09 05:12:11;;;;;;;4.00;0.70;;;3.40;99.90;;;;;;5034060;28;20025;-72
2022/01/09 05:14:37;;;;;;;1.03;0.70;;;3.60;99.90;;;;;;5034170;28;20075;-72
2022/01/09 05:17:02;;;;;;;0.60;0.60;;;3.60;99.90;;;;;;5034487;28;20033;-72
2022/01/09 05:19:30;;;;;;;0.80;0.53;;;3.70;99.90;;;;;;5033890;28;20524;-71
2022/01/09 05:21:57;;;;;;;0.70;0.70;;;3.60;99.90;;;;;;5034247;28;20037;-72
2022/01/09 05:24:24;;;;;;;0.60;0.60;;;3.70;99.90;;;;;;5033783;28;20045;-72
2022/01/09 05:26:49;;;;;;;1.00;0.70;;;3.70;99.90;;;;;;5034062;28;20026;-72
2022/01/09 05:29:15;;;;;;;0.80;0.80;;;3.90;99.90;;;;;;5034193;28;20028;-72
2022/01/09 05:31:40;;;;;;;0.60;0.60;;;3.80;99.90;;;;;;5033798;28;20835;-72
2022/01/09 05:34:06;;;;;;;1.53;0.70;;;3.80;99.90;;;;;;5033539;28;20052;-71
2022/01/09 05:36:32;;;;;;;0.60;0.60;;;3.70;99.90;;;;;;5032701;28;20024;-71
2022/01/09 05:38:58;;;;;;;0.60;0.60;;;3.90;99.90;;;;;;5033904;28;20082;-72
2022/01/09 05:41:24;;;;;;;0.60;0.60;;;3.90;99.90;;;;;;5033647;28;20115;-72
2022/01/09 05:43:50;;;;;;;0.70;0.70;;;3.80;99.90;;;;;;5033657;28;20060;-72
2022/01/09 05:46:15;;;;;;;1.00;0.80;;;3.80;99.90;;;;;;5032254;28;20022;-73
2022/01/09 05:48:41;;;;;;;1.80;0.60;;;3.80;99.90;;;;;;5033445;28;20026;-73
2022/01/09 05:51:07;;;;;;;1.13;0.63;;;3.90;99.90;;;;;;5033314;28;20032;-71
2022/01/09 05:53:32;;;;;;;0.90;0.67;;;3.80;99.90;;;;;;5033338;28;20060;-72
2022/01/09 05:55:58;;;;;;;0.77;0.70;;;3.80;99.90;;;;;;5032288;28;20087;-72
2022/01/09 05:58:23;;;;;;;0.83;0.80;;;3.70;99.90;;;;;;5033277;28;20025;-71
2022/01/09 06:00:49;;;;;;;0.60;0.60;;;3.60;99.90;;;;;;5032085;28;20025;-72
2022/01/09 06:03:14;;;;;;;0.67;0.67;;;3.70;99.90;;;;;;5031172;28;20026;-72
2022/01/09 06:05:40;;;;;;;0.57;0.57;;;3.60;99.90;;;;;;5033598;28;20490;-71
2022/01/09 06:08:05;;;;;;;0.60;0.60;;;3.60;99.90;;;;;;5032308;28;20466;-71
2022/01/09 06:10:31;;;;;;;0.77;0.60;;;3.70;99.90;;;;;;5033527;28;20033;-71
2022/01/09 06:12:57;;;;;;;0.80;0.70;;;3.70;99.90;;;;;;5033413;28;20125;-72
2022/01/09 06:15:22;;;;;;;0.80;0.60;;;3.70;99.90;;;;;;5032412;28;20021;-71
2022/01/09 06:17:48;;;;;;;1.23;0.80;;;3.70;99.90;;;;;;5031823;28;20057;-71
2022/01/09 06:20:15;;;;;;;0.77;0.63;;;3.60;99.90;;;;;;5033189;28;20025;-71
2022/01/09 06:22:41;;;;;;;0.60;0.60;;;3.60;99.90;;;;;;5033480;28;20036;-71
2022/01/09 06:25:08;;;;;;;0.60;0.60;;;3.70;99.90;;;;;;5033036;28;20046;-72
2022/01/09 06:27:33;;;;;;;0.60;0.60;;;3.60;99.90;;;;;;5033104;28;20033;-72
2022/01/09 06:29:59;;;;;;;0.70;0.70;;;3.60;99.90;;;;;;5033122;28;20088;-72
2022/01/09 06:32:25;;;;;;;0.57;0.57;;;3.60;99.90;;;;;;5032871;28;20029;-71
2022/01/09 06:34:50;;;;;;;0.60;0.60;;;3.60;99.90;;;;;;5033045;28;20056;-72
2022/01/09 06:37:16;;;;;;;0.77;0.60;;;3.60;99.90;;;;;;5033076;28;20036;-72
2022/01/09 06:39:43;;;;;;;0.60;0.60;;;3.70;99.90;;;;;;5031311;28;20109;-76
2022/01/09 06:42:09;;;;;;;0.70;0.60;;;3.60;99.90;;;;;;5027425;28;20367;-77
2022/01/09 06:44:35;;;;;;;0.60;0.60;;;3.60;99.90;;;;;;5024004;28;20025;-76
2022/01/09 06:47:01;;;;;;;0.60;0.60;;;3.50;99.90;;;;;;5031122;28;20033;-77
2022/01/09 06:49:26;;;;;;;0.70;0.70;;;3.40;99.90;;;;;;5029637;28;20024;-77
2022/01/09 06:51:52;;;;;;;0.80;0.60;;;3.50;99.90;;;;;;5033356;28;20453;-77
2022/01/09 06:54:17;;;;;;;0.70;0.70;;;3.40;99.90;;;;;;5023476;28;20386;-77
2022/01/09 06:56:43;;;;;;;0.60;0.50;;;3.40;99.90;;;;;;5027762;28;20029;-77
2022/01/09 06:59:09;;;;;;;1.10;0.67;;;3.40;99.90;;;;;;5031585;28;20021;-77
2022/01/09 07:01:34;;;;;;;0.80;0.60;;;3.40;99.90;;;;;;5028224;28;20032;-77
2022/01/09 07:04:00;;;;;;;0.50;0.50;;;3.40;99.90;;;;;;5026687;28;20028;-77
2022/01/09 07:06:26;;;;;;;0.50;0.50;;;3.40;99.90;;;;;;5025272;28;20539;-76
2022/01/09 07:08:51;;;;;;;0.93;0.50;;;3.30;99.90;;;;;;5028425;28;20037;-76
2022/01/09 07:11:17;;;;;;;0.60;0.60;;;3.30;99.90;;;;;;5024057;28;20133;-76
2022/01/09 07:13:42;;;;;;;0.60;0.60;;;3.40;99.90;;;;;;5024744;28;20021;-75
2022/01/09 07:16:08;;;;;;;0.60;0.60;;;3.30;99.90;;;;;;5034480;28;20040;-73
2022/01/09 07:18:34;;;;;;;0.60;0.60;;;3.40;99.90;;;;;;5035473;28;20536;-76
2022/01/09 07:20:59;;;;;;;0.60;0.60;;;3.30;99.90;;;;;;5037733;28;20026;-78
2022/01/09 07:23:25;;;;;;;0.60;0.60;;;3.10;99.90;;;;;;5035996;28;20109;-77
2022/01/09 07:25:51;;;;;;;0.60;0.60;;;3.00;99.90;;;;;;5034631;28;20482;-75
2022/01/09 07:28:17;;;;;;;0.60;0.60;;;2.90;99.90;;;;;;5032388;28;20029;-75
2022/01/09 07:30:43;;;;;;;0.60;0.60;;;2.90;99.90;;;;;;5032504;28;20045;-76
2022/01/09 07:33:08;;;;;;;0.60;0.60;;;2.80;99.90;;;;;;5032626;28;20026;-76
2022/01/09 07:35:34;;;;;;;0.60;0.60;;;2.80;99.90;;;;;;5036418;28;20797;-79
2022/01/09 07:38:00;;;;;;;0.60;0.60;;;2.70;99.90;;;;;;5033903;28;20031;-67
2022/01/09 07:40:26;;;;;;;0.80;0.57;;;2.70;99.90;;;;;;5036984;28;20109;-67
2022/01/09 07:42:52;;;;;;;0.60;0.60;;;2.60;99.90;;;;;;5030819;28;20101;-81
2022/01/09 07:45:22;;;;;;;0.60;0.60;;;2.60;99.90;;;;;;5030852;28;20071;-79
2022/01/09 07:47:48;;;;;;;0.60;0.60;;;2.50;99.90;;;;;;5034677;28;20045;-79
2022/01/09 07:50:14;;;;;;;0.50;0.50;;;2.60;99.90;;;;;;5034659;28;20056;-79
2022/01/09 07:52:41;;;;;;;2.00;0.60;;;2.50;99.90;;;;;;5034880;28;20025;-79
2022/01/09 07:55:07;;;;;;;0.70;0.70;;;2.50;99.90;;;;;;5035190;28;20057;-78
2022/01/09 07:57:33;;;;;;;1.57;0.70;;;2.50;99.90;;;;;;5019720;28;20030;-75
2022/01/09 08:00:02;;;;;;;0.90;0.70;;;2.40;99.90;;;;;;5032744;28;20032;-74
2022/01/09 08:02:27;;;;;;;1.67;0.70;;;2.40;99.90;;;;;;5035437;28;20029;-75
2022/01/09 08:04:53;;;;;;;0.60;0.60;;;2.40;99.90;;;;;;5035147;28;20025;-75
2022/01/09 08:07:18;;;;;;;0.60;0.60;;;2.30;99.90;;;;;;5034354;28;20467;-76
2022/01/09 08:09:45;;;;;;;0.97;0.70;;;2.30;99.90;;;;;;5033433;28;20060;-79
2022/01/09 08:12:14;;;;;;;0.70;0.70;;;2.30;99.90;;;;;;5033047;28;20029;-80
2022/01/09 08:14:42;;;;;;;1.03;0.90;;;2.30;99.90;;;;;;5035324;28;20049;-79
2022/01/09 08:17:08;;;;;;;0.70;0.70;;;2.30;99.90;;;;;;5033136;28;20041;-81
2022/01/09 08:19:35;;;;;;;0.90;0.80;;;2.30;99.90;;;;;;5031847;28;20029;-81
2022/01/09 08:22:02;;;;;;;1.10;1.00;;;2.30;99.90;;;;;;5029937;28;20040;-82
2022/01/09 08:24:28;;;;;;;1.40;0.80;;;2.30;99.90;;;;;;5033238;28;20037;-82
2022/01/09 08:26:53;;;;;;;0.60;0.60;;;2.30;99.90;;;;;;5029705;28;20022;-82
2022/01/09 08:29:19;;;;;;;2.27;0.70;;;2.40;99.90;;;;;;5032427;28;20018;-82
2022/01/09 08:31:44;;;;;;;2.30;0.70;;;2.40;99.90;;;;;;5035660;28;20100;-82
2022/01/09 08:34:10;;;;;;;0.67;0.63;;;2.40;99.90;;;;;;5032257;28;20033;-83
2022/01/09 08:36:36;;;;;;;0.63;0.63;;;2.40;99.90;;;;;;5032352;28;20041;-83
2022/01/09 08:39:04;;;;;;;1.37;0.70;;;2.40;99.90;;;;;;5040005;28;20079;-82
2022/01/09 08:41:30;;;;;;;0.70;0.70;;;2.40;99.90;;;;;;5032489;28;20036;-83
2022/01/09 08:43:55;;;;;;;0.97;0.80;;;2.50;99.90;;;;;;5024102;28;20462;-81
2022/01/09 08:46:21;;;;;;;2.13;0.90;;;2.60;99.90;;;;;;5012246;28;20056;-81
2022/01/09 08:48:47;;;;;;;2.63;0.70;;;2.60;99.90;;;;;;5013271;28;20057;-83
2022/01/09 08:51:12;;;;;;;0.70;0.70;;;2.70;99.90;;;;;;5044604;28;20057;-82
2022/01/09 08:53:39;;;;;;;1.50;0.80;;;2.80;99.90;;;;;;5031194;28;20828;-83
2022/01/09 08:56:06;;;;;;;1.03;0.70;;;2.80;99.90;;;;;;5030627;28;20773;-82
2022/01/09 08:58:32;;;;;;;0.70;0.70;;;2.80;99.90;;;;;;5032177;28;20143;-82
2022/01/09 09:00:58;;;;;;;1.70;0.80;;;2.90;99.90;;;;;;5031959;28;20138;-83
2022/01/09 09:03:24;;;;;;;0.67;0.67;;;2.90;99.90;;;;;;5033392;28;20029;-74
2022/01/09 09:05:50;;;;;;;2.20;0.80;;;3.00;99.90;;;;;;5033236;28;20018;-75
2022/01/09 09:08:15;;;;;;;1.27;1.03;;;3.00;99.90;;;;;;5034716;28;20327;-75
2022/01/09 09:10:41;;;;;;;1.00;0.90;;;3.10;99.90;;;;;;5034238;28;20036;-75
2022/01/09 09:13:07;;;;;;;1.83;1.00;;;3.00;99.90;;;;;;5034643;28;20424;-73
2022/01/09 09:15:32;;;;;;;3.07;1.00;;;3.10;99.90;;;;;;5034711;28;20108;-74
2022/01/09 09:17:58;;;;;;;1.37;0.87;;;3.10;99.90;;;;;;5034012;28;20382;-74
2022/01/09 09:20:24;;;;;;;1.13;0.80;;;3.10;99.90;;;;;;5034046;28;20431;-74
2022/01/09 09:22:50;;;;;;;1.23;0.80;;;3.20;99.90;;;;;;5034324;28;20023;-74
2022/01/09 09:25:17;;;;;;;1.00;0.90;;;3.30;99.90;;;;;;5034732;28;20047;-75
2022/01/09 09:27:43;;;;;;;3.00;1.20;;;3.30;99.90;;;;;;5033881;28;20029;-75
2022/01/09 09:30:27;;;;;;;1.73;0.80;;;3.40;99.90;;;;;;5034252;28;20040;-74
2022/01/09 09:32:55;;;;;;;2.17;0.90;;;3.40;99.90;;;;;;5033983;28;20029;-74
2022/01/09 09:35:21;;;;;;;1.00;0.80;;;3.40;99.90;;;;;;5033845;28;20029;-75
2022/01/09 09:37:47;;;;;;;1.63;0.90;;;3.30;99.90;;;;;;5033502;28;20109;-75
2022/01/09 09:40:12;;;;;;;1.20;0.80;;;3.30;99.90;;;;;;5034023;28;20022;-75
2022/01/09 09:42:38;;;;;;;1.10;0.90;;;3.30;99.90;;;;;;5034185;28;20017;-75
2022/01/09 09:45:09;;;;;;;1.17;0.80;;;3.30;99.90;;;;;;5032750;28;20017;-75
2022/01/09 09:47:36;;;;;;;1.13;0.90;;;3.30;99.90;;;;;;5033579;28;20083;-75
2022/01/09 09:50:04;;;;;;;1.33;0.80;;;3.40;99.90;;;;;;5032090;28;20034;-75
2022/01/09 09:52:30;;;;;;;1.53;1.00;;;3.40;99.90;;;;;;5033612;28;20030;-75
2022/01/09 09:54:57;;;;;;;1.77;1.00;;;3.50;99.90;;;;;;5033278;28;20040;-75
2022/01/09 09:57:22;;;;;;;1.37;1.00;;;3.40;99.90;;;;;;5033405;28;20025;-75
2022/01/09 09:59:48;;;;;;;1.40;0.87;;;3.40;99.90;;;;;;5033301;28;20040;-75
2022/01/09 10:02:17;;;;;;;2.57;1.23;;;3.40;99.90;;;;;;5033483;28;20466;-75
2022/01/09 10:05:06;;;;;;;2.13;0.93;;;3.30;99.90;;;;;;5031959;28;20501;-74
2022/01/09 10:07:32;;;;;;;1.83;1.00;;;3.20;99.90;;;;;;5033280;28;20033;-75
2022/01/09 10:10:00;;;;;;;2.90;1.30;;;3.10;99.90;;;;;;5033268;28;20374;-75
2022/01/09 10:12:31;;;;;;;1.43;0.97;;;3.10;99.90;;;;;;5033411;28;20459;-75
2022/01/09 10:15:01;;;;;;;1.03;0.80;;;3.00;99.90;;;;;;5033185;28;20029;-75
2022/01/09 10:17:27;;;;;;;1.87;1.00;;;3.00;99.90;;;;;;5033231;28;20025;-75
2022/01/09 10:20:19;;;;;;;1.53;1.20;;;3.00;99.90;;;;;;5032118;28;20421;-75
2022/01/09 10:22:48;;;;;;;2.10;1.03;;;3.10;99.90;;;;;;5033034;28;20053;-74
2022/01/09 10:25:30;;;;;;;3.17;1.10;;;3.20;99.90;;;;;;5033395;28;20029;-75
2022/01/09 10:28:16;;;;;;;3.30;1.10;;;3.20;99.90;;;;;;5033330;28;20048;-75
2022/01/09 10:30:43;;;;;;;1.37;1.03;;;3.30;99.90;;;;;;5033176;28;20029;-74
2022/01/09 10:33:12;;;;;;;1.63;1.00;;;3.30;99.90;;;;;;5033012;28;20433;-74
2022/01/09 10:35:43;;;;;;;2.80;1.10;;;3.50;99.90;;;;;;5033301;28;20202;-74
2022/01/09 10:38:24;;;;;;;2.33;1.30;;;3.40;99.90;;;;;;5032692;28;20482;-74
2022/01/09 10:41:03;;;;;;;1.80;1.20;;;3.50;99.90;;;;;;5032971;28;20052;-74
2022/01/09 10:43:39;;;;;;;0.97;0.80;;;3.40;99.90;;;;;;5032717;28;20101;-74
2022/01/09 10:46:05;;;;;;;1.57;1.40;;;3.40;99.90;;;;;;5032961;28;20050;-75
2022/01/09 10:48:39;;;;;;;1.90;1.10;;;3.40;99.90;;;;;;5033332;28;20036;-74
2022/01/09 10:51:07;;;;;;;2.73;1.27;;;3.40;99.90;;;;;;5035687;28;20041;-74
2022/01/09 10:53:37;;;;;;;2.90;1.10;;;3.50;99.90;;;;;;5036972;28;20022;-75
2022/01/09 10:56:11;;;;;;;3.20;1.10;;;3.50;99.90;;;;;;5035336;28;20072;-75
2022/01/09 10:58:43;;;;;;;1.70;1.30;;;3.50;99.90;;;;;;5036546;28;20039;-75
2022/01/09 11:01:20;;;;;;;1.70;1.00;;;3.70;99.90;;;;;;5036498;28;20018;-75
2022/01/09 11:03:49;;;;;;;2.43;1.00;;;3.70;99.90;;;;;;5036444;28;20075;-75
2022/01/09 11:06:16;;;;;;;3.03;1.00;;;3.70;99.90;;;;;;5035112;28;20022;-75
2022/01/09 11:08:45;;;;;;;3.23;1.13;;;3.90;99.90;;;;;;5036222;28;20057;-74
2022/01/09 11:11:27;;;;;;;4.20;1.20;;;3.80;99.90;;;;;;5036233;28;20047;-74
2022/01/09 11:13:54;;;;;;;2.20;1.40;;;3.80;99.90;;;;;;5034912;28;20123;-74
2022/01/09 11:16:37;;;;;;;3.43;1.43;;;3.80;99.90;;;;;;5036337;28;20026;-74
2022/01/09 11:19:09;;;;;;;2.60;1.30;;;3.90;99.90;;;;;;5016307;28;20113;-74
2022/01/09 11:21:47;;;;;;;8.50;1.97;;;4.00;99.90;;;;;;5015983;28;20022;-74
2022/01/09 11:24:27;;;;;;;3.17;1.30;;;4.00;99.90;;;;;;5016255;28;20068;-75
2022/01/09 11:27:01;;;;;;;5.17;1.20;;;4.00;99.90;;;;;;5022458;28;20382;-74
2022/01/09 11:29:30;;;;;;;3.37;1.30;;;4.00;99.90;;;;;;5035762;28;20022;-74
2022/01/09 11:32:19;;;;;;;2.80;1.17;;;3.90;99.90;;;;;;5031369;28;20030;-74
2022/01/09 11:35:07;;;;;;;4.87;1.50;;;3.90;99.90;;;;;;5034184;28;20075;-75
2022/01/09 11:38:03;;;;;;;5.73;1.27;;;4.00;99.90;;;;;;5034088;28;20029;-74
2022/01/09 11:40:30;;;;;;;;;;;3.90;99.90;;;;;;5033144;28;20036;-73
2022/01/09 11:43:04;;;;;;;3.47;1.30;;;3.90;99.90;;;;;;5035915;28;19905;-73
2022/01/09 11:45:40;;;;;;;2.17;1.20;;;3.90;99.90;;;;;;5035960;28;20025;-73
2022/01/09 11:48:06;;;;;;;5.13;1.50;;;4.00;99.90;;;;;;5035561;28;20112;-73
2022/01/09 11:50:33;;;;;;;4.63;1.20;;;3.80;99.90;;;;;;5035732;28;20025;-73
2022/01/09 11:53:00;;;;;;;3.07;1.40;;;3.90;99.90;;;;;;5035453;28;20032;-73
2022/01/09 11:55:39;;;;;;;4.77;1.20;;;4.00;99.90;;;;;;5035581;28;20021;-73
2022/01/09 11:58:08;;;;;;;4.10;1.30;;;3.90;99.90;;;;;;5035199;28;20112;-73
2022/01/09 12:00:40;;;;;;;3.30;1.30;;;4.00;99.90;;;;;;5035356;28;20017;-73
2022/01/09 12:03:26;;;;;;;5.10;1.40;;;3.90;99.90;;;;;;5034425;28;20021;-73
2022/01/09 12:06:01;;;;;;;;;;;3.90;99.90;;;;;;5031646;28;20034;-73
2022/01/09 12:08:27;;;;;;;5.85;1.38;;;3.90;99.90;;;;;;5035366;28;19905;-73
2022/01/09 12:10:53;;;;;;;5.33;1.50;;;3.90;99.90;;;;;;5035322;28;20133;-72
2022/01/09 12:13:40;;;;;;;5.67;1.47;;;3.90;99.90;;;;;;5034975;28;20021;-72
2022/01/09 12:16:07;;;;;;;3.03;1.20;;;3.90;99.90;;;;;;5035451;28;20420;-72
2022/01/09 12:18:39;;;;;;;3.30;1.43;;;3.90;99.90;;;;;;5035111;28;20021;-72
2022/01/09 12:21:05;;;;;;;3.70;1.37;;;3.90;99.90;;;;;;5034847;28;20024;-73
2022/01/09 12:23:31;;;;;;;6.60;1.37;;;4.00;99.90;;;;;;5034728;28;20397;-73
2022/01/09 12:25:57;;;;;;;3.83;1.30;;;4.20;99.90;;;;;;5034725;28;20025;-73
2022/01/09 12:28:25;;;;;;;4.23;1.30;;;4.20;99.90;;;;;;5032820;28;20032;-63
2022/01/09 12:30:57;;;;;;;6.17;1.40;;;4.20;99.90;;;;;;5034069;28;20030;-73
2022/01/09 12:33:25;;;;;;;6.33;2.10;;;4.20;99.90;;;;;;5034866;28;20104;-73
2022/01/09 12:36:11;;;;;;;5.67;1.50;;;4.30;99.90;;;;;;5034919;28;20104;-73
2022/01/09 12:38:44;;;;;;;4.63;1.70;;;4.40;99.90;;;;;;5034722;28;20035;-73
2022/01/09 12:41:14;;;;;;;3.50;1.30;;;4.50;99.90;;;;;;5035043;28;20024;-73
2022/01/09 12:43:41;;;;;;;3.23;1.30;;;4.40;99.90;;;;;;5034507;28;20028;-72
2022/01/09 12:46:14;;;;;;;5.87;1.47;;;4.40;99.90;;;;;;5034866;28;20023;-73
2022/01/09 12:48:40;;;;;;;3.77;1.33;;;4.30;99.90;;;;;;5034996;28;20033;-73
2022/01/09 12:51:15;;;;;;;3.10;1.30;;;4.30;99.90;;;;;;5034860;28;20101;-73
2022/01/09 12:53:48;;;;;;;3.28;1.50;;;4.30;99.90;;;;;;5034337;28;20111;-72
2022/01/09 12:56:15;;;;;;;4.17;1.43;;;4.30;99.90;;;;;;5034496;28;20104;-73
2022/01/09 12:58:50;;;;;;;2.67;1.10;;;4.30;99.90;;;;;;5034124;28;20071;-73
2022/01/09 13:01:20;;;;;;;2.60;1.15;;;4.30;99.90;;;;;;5034222;28;20014;-73
2022/01/09 13:03:48;;;;;;;3.77;1.50;;;4.30;99.90;;;;;;5034270;28;20477;-73